Latest Weather Observations for Blackwater Airport

IDQ60801

Issued at 4:02 pm EST Monday 23 January 2017 (issued every 30 minutes, with the page automatically refreshed every 10 minutes)

About weather observations | Map of weather stations | Latest weather observations for QLD | Other Formats
Station Details ID: 035134 Name: BLACKWATER AIRPORT Lat: -23.60 Lon: 148.81 Height: 192.95 m
Data from the previous 72 hours. | See also: Recent months at Blackwater Airport
Date/Time
EST
Temp
°C
App
Temp
°C
Dew
Point
°C
Rel
Hum
%
Delta-T
°C
Wind Press
QNH
hPa
Press
MSL
hPa
Rain since
9am
mm
Dir  Spd
km/h
Gust
km/h
Spd
kts
Gust
kts
23/04:00pm 31.8 32.4 18.7 45 8.6 ENE 13 13 7 7 1011.8 1010.5 -
23/03:30pm 32.4 33.2 18.2 42 9.2 NNE 11 20 6 11 1012.0 1010.7 0.0
23/03:00pm 31.4 31.9 18.4 46 8.5 NNE 13 17 7 9 1012.3 1011.0 0.0
23/02:30pm 31.8 31.9 19.1 47 8.4 E 17 26 9 14 1012.5 1011.2 0.0
23/02:00pm 31.0 30.4 18.4 47 8.2 ENE 19 30 10 16 1012.8 1011.5 0.0
23/01:30pm 30.4 30.0 18.8 50 7.6 ENE 19 28 10 15 1013.1 1011.8 0.0
23/01:00pm 31.2 31.2 18.9 48 8.1 ENE 17 26 9 14 1013.4 1012.1 0.0
23/12:30pm 31.2 30.6 18.9 48 8.1 NE 20 26 11 14 1013.7 1012.4 0.0
23/12:00pm 30.2 29.7 18.6 49 7.5 NE 19 28 10 15 1014.1 1012.7 0.0
23/11:30am 30.5 29.4 18.6 49 7.7 NE 22 33 12 18 1014.4 1013.0 0.0
23/11:00am 30.5 30.0 19.2 51 7.4 NE 20 30 11 16 1014.8 1013.5 0.0
23/10:30am 28.8 28.2 18.9 55 6.4 ENE 20 33 11 18 1015.3 1014.0 0.0
23/10:00am 28.0 26.8 18.4 56 6.2 ENE 22 33 12 18 1015.4 1014.1 0.0
23/09:30am 28.6 28.1 19.0 56 6.2 ENE 20 32 11 17 1015.6 1014.3 0.0
23/09:00am 28.5 27.1 18.9 56 6.2 NE 24 33 13 18 1015.5 1014.2 0.0
23/08:30am 27.8 26.0 18.8 58 5.8 ENE 26 39 14 21 1015.2 1013.9 0.0
23/08:00am 27.6 25.6 19.1 59 5.5 ENE 28 39 15 21 1015.0 1013.7 0.0
23/07:30am 26.8 25.2 19.2 63 4.9 E 26 35 14 19 1015.0 1013.7 0.0
23/07:00am 25.8 24.6 19.2 67 4.3 ENE 24 33 13 18 1014.9 1013.6 0.0
23/06:30am 25.1 24.2 19.0 69 3.9 ENE 22 33 12 18 1014.5 1013.1 0.0
23/06:00am 24.5 24.8 19.6 74 3.2 ENE 17 24 9 13 1014.1 1012.7 0.0
23/05:30am 24.3 24.0 19.6 75 3.0 ENE 20 26 11 14 1013.5 1012.2 0.0
23/05:00am 24.5 23.9 19.8 75 3.1 E 22 30 12 16 1013.3 1012.0 0.0
23/04:30am 25.0 24.8 19.8 73 3.4 ENE 20 28 11 15 1013.0 1011.7 0.0
23/04:00am 24.9 24.9 20.2 75 3.1 E 20 26 11 14 1012.9 1011.6 0.0
23/03:30am 24.9 24.6 20.4 76 3.0 ENE 22 32 12 17 1012.8 1011.5 0.0
23/03:00am 25.2 25.4 20.5 75 3.1 ENE 20 26 11 14 1012.7 1011.4 0.0
23/02:30am 25.2 25.4 20.5 75 3.1 ENE 20 28 11 15 1012.5 1011.2 0.0
23/02:00am 25.4 25.5 20.4 74 3.3 ENE 20 28 11 15 1012.6 1011.3 0.0
23/01:30am 25.5 26.2 20.5 74 3.3 ENE 17 26 9 14 1012.9 1011.6 0.0
23/01:00am 25.4 25.1 20.4 74 3.3 ENE 22 32 12 17 1013.0 1011.7 0.0
23/12:30am 25.5 25.7 20.5 74 3.3 ENE 20 30 11 16 1013.1 1011.8 0.0
23/12:00am 25.7 25.1 20.5 73 3.4 ENE 24 32 13 17 1013.3 1012.0 0.0
 
Date/Time
EST
Temp
°C
App
Temp
°C
Dew
Point
°C
Rel
Hum
%
Delta-T
°C
Wind Press
QNH
hPa
Press
MSL
hPa
Rain since
9am
mm
Dir  Spd
km/h
Gust
km/h
Spd
kts
Gust
kts
22/11:30pm 25.9 25.8 20.7 73 3.4 ENE 22 30 12 16 1013.4 1012.1 0.0
22/11:00pm 26.1 25.7 20.9 73 3.5 NE 24 35 13 19 1013.5 1012.2 0.0
22/10:30pm 26.1 25.7 20.9 73 3.5 ENE 24 35 13 19 1013.5 1012.2 0.0
22/10:00pm 26.4 25.9 20.7 71 3.8 ENE 24 37 13 20 1013.2 1011.9 0.0
22/09:30pm 26.8 25.9 20.6 69 4.1 ENE 26 39 14 21 1012.9 1011.6 0.0
22/09:00pm 27.4 27.0 21.0 68 4.3 ENE 24 39 13 21 1012.6 1011.3 0.0
22/08:30pm 27.6 27.2 20.9 67 4.5 NE 24 39 13 21 1012.5 1011.2 0.0
22/08:00pm 28.2 27.8 21.0 65 4.8 NE 24 39 13 21 1012.1 1010.8 0.0
22/07:30pm 28.8 27.6 20.8 62 5.3 NE 28 41 15 22 1011.7 1010.4 0.0
22/07:00pm 29.9 28.9 20.5 57 6.3 ENE 26 37 14 20 1011.4 1010.1 0.0
22/06:30pm 30.6 29.1 20.2 53 6.9 ENE 28 39 15 21 1010.8 1009.5 0.0
22/06:00pm 31.9 30.4 19.5 47 8.2 ENE 26 35 14 19 1010.4 1009.1 0.0
22/05:30pm 32.4 31.0 19.6 46 8.5 ENE 26 37 14 20 1010.1 1008.8 0.0
22/05:00pm 33.0 31.2 19.5 45 9.0 ENE 28 35 15 19 1010.0 1008.7 0.0
22/04:30pm 33.9 32.5 18.8 41 9.9 ENE 24 32 13 17 1010.0 1008.7 0.0
22/04:00pm 36.1 34.8 19.1 36 11.3 NE 24 35 13 19 1009.9 1008.5 0.0
22/03:30pm 35.2 33.6 17.4 34 11.5 NE 22 35 12 19 1010.2 1008.9 0.0
22/03:00pm 36.2 35.0 17.4 33 12.2 ENE 20 32 11 17 1010.5 1009.2 0.0
22/02:30pm 34.6 32.6 16.4 33 11.6 E 22 30 12 16 1010.9 1009.6 0.0
22/02:00pm 34.5 32.5 17.3 36 11.1 ENE 24 41 13 22 1011.1 1009.8 0.0
22/01:30pm 34.8 32.7 16.1 32 11.9 E 22 35 12 19 1011.2 1009.9 0.0
22/01:00pm 34.9 33.2 17.2 35 11.5 ENE 22 35 12 19 1011.5 1010.2 0.0
22/12:30pm 34.1 31.4 16.5 35 11.2 ENE 26 37 14 20 1011.8 1010.5 0.0
22/12:00pm 34.6 31.6 16.9 35 11.4 NE 28 43 15 23 1012.1 1010.8 0.0
22/11:30am 33.9 30.5 15.8 33 11.4 ENE 28 41 15 22 1012.3 1011.0 0.0
22/11:00am 32.6 31.0 19.1 44 8.9 NE 26 39 14 21 1012.6 1011.3 0.0
22/10:30am 31.6 29.6 18.2 44 8.7 ENE 26 33 14 18 1012.9 1011.6 0.0
22/10:00am 31.3 32.0 21.2 55 6.8 ENE 19 26 10 14 1012.9 1011.6 0.0
22/09:30am 30.7 30.5 21.2 57 6.4 ENE 24 33 13 18 1013.0 1011.7 0.0
22/09:00am 29.7 28.9 20.8 58 6.0 ENE 26 35 14 19 1012.8 1011.5 0.0
22/08:30am 31.0 29.5 20.3 53 7.1 ENE 28 37 15 20 1012.6 1011.3 0.0
22/08:00am 30.7 29.8 20.6 54 6.8 ENE 26 33 14 18 1012.4 1011.1 0.0
22/07:30am 29.4 28.9 21.4 62 5.4 ENE 26 35 14 19 1012.1 1010.8 0.0
22/07:00am 28.2 27.6 19.7 60 5.6 ENE 22 28 12 15 1011.8 1010.5 0.0
22/06:30am 28.1 26.9 17.6 53 6.7 ENE 20 28 11 15 1011.4 1010.1 0.0
22/06:00am 27.6 28.0 16.2 49 7.1 NE 9 11 5 6 1010.8 1009.5 0.0
22/05:30am 27.2 27.5 15.9 50 7.0 NNE 9 11 5 6 1010.2 1008.9 0.0
22/05:00am 27.4 27.6 15.7 48 7.2 NE 9 11 5 6 1009.9 1008.5 0.0
22/04:30am 27.8 28.6 15.8 48 7.4 N 6 7 3 4 1009.5 1008.1 0.0
22/04:00am 27.8 28.0 15.8 48 7.4 N 9 9 5 5 1009.2 1007.8 0.0
22/03:30am 27.7 27.6 15.0 45 7.8 NE 9 11 5 6 1009.1 1007.7 0.0
22/03:00am 27.9 28.2 14.9 45 7.9 ENE 7 9 4 5 1009.2 1007.8 0.0
22/02:30am 28.5 28.7 14.7 43 8.4 ESE 7 9 4 5 1009.1 1007.7 0.0
22/02:00am 28.4 28.2 14.6 43 8.4 E 9 11 5 6 1009.1 1007.7 0.0
22/01:30am 28.4 27.9 15.0 44 8.2 ENE 11 13 6 7 1009.2 1007.8 0.0
22/01:00am 28.7 30.3 14.9 43 8.5 CALM 0 4 0 2 1009.5 1008.1 0.0
22/12:30am 28.6 28.4 14.8 43 8.4 N 9 9 5 5 1009.6 1008.2 0.0
22/12:00am 28.9 28.2 14.3 40 8.9 N 11 13 6 7 1009.8 1008.4 0.0
 
Date/Time
EST
Temp
°C
App
Temp
°C
Dew
Point
°C
Rel
Hum
%
Delta-T
°C
Wind Press
QNH
hPa
Press
MSL
hPa
Rain since
9am
mm
Dir  Spd
km/h
Gust
km/h
Spd
kts
Gust
kts
21/11:30pm 29.1 28.6 13.7 38 9.3 NE 9 13 5 7 1010.0 1008.7 0.0
21/11:00pm 30.2 30.5 13.5 36 10.1 N 4 7 2 4 1010.2 1008.9 0.0
21/10:30pm 30.9 30.1 12.8 33 10.8 NNW 9 11 5 6 1009.8 1008.4 0.0
21/10:00pm 31.0 30.2 15.0 38 9.9 N 13 17 7 9 1009.0 1007.6 0.0
21/09:30pm 31.6 30.8 15.1 36 10.2 NNE 13 17 7 9 1008.3 1007.0 0.0
21/09:00pm 32.9 31.4 15.4 35 11.0 NE 17 22 9 12 1008.1 1006.8 0.0
21/08:30pm 33.6 32.6 14.6 31 11.8 ENE 13 17 7 9 1007.7 1006.4 0.0
21/08:00pm 34.1 33.3 14.1 30 12.4 ENE 11 15 6 8 1007.4 1006.1 0.0
21/07:30pm 34.8 33.6 14.1 28 12.8 ENE 13 15 7 8 1007.1 1005.8 0.0
21/07:00pm 35.6 34.1 14.3 28 13.3 ENE 15 20 8 11 1006.5 1005.2 0.0
21/06:30pm 36.8 36.8 14.1 25 14.1 SE 7 11 4 6 1006.1 1004.8 0.0
21/06:00pm 37.4 37.3 14.0 24 14.6 S 7 9 4 5 1005.8 1004.5 0.0
21/05:30pm 37.8 37.9 13.8 24 14.9 E 6 9 3 5 1005.3 1004.0 0.0
21/05:00pm 37.5 37.5 14.1 24 14.7 E 7 15 4 8 1005.1 1003.7 0.0
21/04:30pm 37.6 38.4 13.6 24 14.9 WNW 2 6 1 3 1005.2 1003.8 0.0
21/04:00pm 37.4 36.4 13.4 24 14.9 SW 11 15 6 8 1005.4 1004.1 0.0
21/03:30pm 37.2 35.0 13.3 24 14.7 SSW 17 24 9 13 1005.8 1004.5 0.0
21/03:00pm 39.1 37.2 14.2 23 15.7 WSW 17 22 9 12 1006.2 1004.9 0.0
21/02:30pm 38.3 35.9 12.8 22 15.7 SSW 17 28 9 15 1006.6 1005.3 0.0
21/02:00pm 38.4 36.8 12.9 22 15.7 WSW 13 28 7 15 1007.0 1005.7 0.0
21/01:30pm 37.9 36.1 13.2 23 15.3 W 15 22 8 12 1007.5 1006.2 0.0
21/01:00pm 37.3 35.3 12.7 23 15.1 S 15 22 8 12 1007.8 1006.5 0.0
21/12:30pm 37.9 36.2 12.5 22 15.5 WNW 13 20 7 11 1008.0 1006.7 0.0
21/12:00pm 37.8 36.3 13.1 23 15.3 NW 13 20 7 11 1008.3 1007.0 0.0
21/11:30am 35.8 34.6 12.7 25 14.1 WSW 11 19 6 10 1008.9 1007.5 0.0
21/11:00am 36.1 35.7 15.2 28 13.2 WNW 11 20 6 11 1009.2 1007.8 0.0
21/10:30am 33.7 33.7 15.2 33 11.6 WNW 9 17 5 9 1009.7 1008.3 0.0
21/10:00am 33.0 32.5 15.9 35 10.8 WNW 13 20 7 11 1010.0 1008.7 0.0
21/09:30am 31.9 32.6 17.0 41 9.5 WNW 9 15 5 8 1010.3 1009.0 0.0
21/09:00am 31.0 31.0 16.2 41 9.3 WNW 11 17 6 9 1010.5 1009.2 0.0
21/08:30am 29.1 30.2 17.9 50 7.2 WNW 9 13 5 7 1010.4 1009.1 0.0
21/08:00am 27.1 28.5 17.8 56 5.9 WNW 7 11 4 6 1010.6 1009.3 0.0
21/07:30am 25.2 26.8 17.9 64 4.6 E 6 9 3 5 1010.7 1009.4 0.0
21/07:00am 24.3 26.1 18.2 68 3.9 NNE 6 9 3 5 1010.7 1009.4 0.0
21/06:30am 23.7 25.4 18.1 71 3.5 NE 6 7 3 4 1010.4 1009.1 0.0
21/06:00am 22.3 25.0 17.7 75 2.9 CALM 0 0 0 0 1010.0 1008.7 0.0
21/05:30am 21.8 24.0 17.4 76 2.7 NNE 2 7 1 4 1009.6 1008.2 0.0
21/05:00am 21.8 22.5 17.0 74 3.0 NE 9 9 5 5 1009.0 1007.6 0.0
21/04:30am 22.0 22.6 16.7 72 3.3 NE 9 13 5 7 1008.4 1007.1 0.0
21/04:00am 22.3 22.5 16.8 71 3.4 NE 11 15 6 8 1008.0 1006.7 0.0
21/03:30am 22.7 22.5 16.7 69 3.7 NE 13 17 7 9 1007.8 1006.5 0.0
21/03:00am 22.3 22.2 15.9 67 3.9 NE 11 13 6 7 1007.7 1006.4 0.0
21/02:30am 22.6 22.8 15.7 65 4.2 NE 9 11 5 6 1007.8 1006.5 0.0
21/02:00am 23.3 23.6 15.9 63 4.5 NE 9 11 5 6 1007.9 1006.6 0.0
21/01:30am 23.7 22.7 15.7 61 4.9 NNE 15 17 8 9 1007.9 1006.6 0.0
21/01:00am 23.8 23.3 14.8 57 5.4 NNE 11 15 6 8 1008.3 1007.0 0.0
21/12:30am 23.7 22.7 14.7 57 5.4 NNE 13 17 7 9 1008.3 1007.0 0.0
21/12:00am 24.3 23.1 14.1 53 6.1 NNE 13 17 7 9 1008.9 1007.5 0.0
 
Date/Time
EST
Temp
°C
App
Temp
°C
Dew
Point
°C
Rel
Hum
%
Delta-T
°C
Wind Press
QNH
hPa
Press
MSL
hPa
Rain since
9am
mm
Dir  Spd
km/h
Gust
km/h
Spd
kts
Gust
kts
20/11:30pm 24.7 24.1 13.6 50 6.6 NNE 9 11 5 6 1008.9 1007.5 0.0
20/11:00pm 25.2 24.6 12.4 45 7.4 NNE 7 11 4 6 1009.0 1007.6 0.0
20/10:30pm 25.8 24.1 11.2 40 8.3 NNE 11 15 6 8 1008.9 1007.5 0.0
20/10:00pm 26.9 24.5 10.2 35 9.4 NNE 13 17 7 9 1008.7 1007.3 0.0
20/09:30pm 28.3 26.0 10.5 33 10.1 NNE 13 19 7 10 1008.3 1007.0 0.0
20/09:00pm 29.3 27.4 11.8 34 10.3 NNE 13 17 7 9 1007.9 1006.6 0.0
20/08:30pm 30.3 28.2 13.6 36 10.1 NNE 17 22 9 12 1007.5 1006.2 0.0
20/08:00pm 30.7 28.7 12.6 33 10.8 NNE 15 20 8 11 1007.2 1005.9 0.0
20/07:30pm 31.0 29.7 11.4 30 11.5 N 9 13 5 7 1006.6 1005.3 0.0
20/07:00pm 32.4 30.3 11.0 27 12.6 N 13 15 7 8 1006.2 1004.9 0.0
20/06:30pm 35.0 31.6 11.4 24 14.0 N 20 26 11 14 1006.0 1004.7 0.0
20/06:00pm 36.2 32.2 10.4 21 15.2 N 22 30 12 16 1005.5 1004.2 0.0
20/05:30pm 36.9 33.4 10.2 20 15.7 N 19 28 10 15 1005.1 1003.7 0.0
20/05:00pm 38.2 35.9 10.5 19 16.5 NNE 13 20 7 11 1004.9 1003.5 0.0
20/04:30pm 37.6 34.8 10.0 19 16.3 NNW 15 30 8 16 1004.9 1003.5 0.0

Other Formats:

Comma delimited format used in spreadsheet applications
http://www.bom.gov.au/fwo/IDQ60801/IDQ60801.94398.axf

JavaScript Object Notation format (JSON) in row-major order
http://www.bom.gov.au/fwo/IDQ60801/IDQ60801.94398.json